Time;durP1;ratioP1;P1;durP2;ratioP2;P2;SDS_P1;SDS_P2;PMS_P1;PMS_P2;Temp;Humidity;BMP_temperature;BMP_pressure;BME280_temperature;BME280_humidity;BME280_pressure;Samples;Min_cycle;Max_cycle;Signal;HPM_P1;HPM_P2
2021/06/01 00:00:51;;;;;;;2.63;2.42;;;;;;;;;;5036504;28;20225;-82
2021/06/01 00:03:18;;;;;;;2.40;2.20;;;;;;;;;;5036817;28;20221;-82
2021/06/01 00:05:46;;;;;;;2.88;2.33;;;;;;;;;;5036539;28;20234;-82
2021/06/01 00:08:13;;;;;;;2.53;2.33;;;;;;;;;;5035844;28;20259;-82
2021/06/01 00:10:40;;;;;;;3.95;2.17;;;;;;;;;;5036554;28;20264;-82
2021/06/01 00:13:07;;;;;;;3.40;2.50;;;;;;;;;;5038315;28;20198;-82
2021/06/01 00:15:34;;;;;;;2.22;2.03;;;;;;;;;;5040304;28;20222;-82
2021/06/01 00:18:01;;;;;;;3.00;2.25;;;;;;;;;;5040685;28;20206;-82
2021/06/01 00:20:28;;;;;;;2.25;2.05;;;;;;;;;;5040588;28;20264;-82
2021/06/01 00:22:56;;;;;;;2.53;2.33;;;;;;;;;;5039447;28;20210;-82
2021/06/01 00:25:23;;;;;;;2.88;2.67;;;;;;;;;;5039739;28;20233;-82
2021/06/01 00:27:50;;;;;;;2.95;2.20;;;;;;;;;;5039840;28;20218;-82
2021/06/01 00:30:18;;;;;;;2.50;2.15;;;;;;;;;;5039649;28;20289;-82
2021/06/01 00:32:45;;;;;;;2.33;2.13;;;;;;;;;;5039622;28;20215;-82
2021/06/01 00:35:13;;;;;;;3.97;2.15;;;;;;;;;;5040628;28;20222;-82
2021/06/01 00:37:40;;;;;;;2.78;2.13;;;;;;;;;;5040236;28;20238;-82
2021/06/01 00:40:10;;;;;;;2.97;2.53;;;;;;;;;;5040591;28;20206;-82
2021/06/01 00:42:37;;;;;;;2.28;2.08;;;;;;;;;;5040627;28;20206;-82
2021/06/01 00:45:06;;;;;;;2.15;2.05;;;;;;;;;;5040525;28;20240;-82
2021/06/01 00:47:33;;;;;;;3.13;2.17;;;;;;;;;;5040469;28;20262;-82
2021/06/01 00:50:00;;;;;;;2.63;2.42;;;;;;;;;;5039966;28;20796;-82
2021/06/01 00:52:27;;;;;;;4.10;2.38;;;;;;;;;;5039212;28;20202;-82
2021/06/01 00:54:54;;;;;;;3.50;2.47;;;;;;;;;;5038624;28;20229;-82
2021/06/01 00:57:23;;;;;;;2.75;2.15;;;;;;;;;;5039225;28;20209;-82
2021/06/01 00:59:49;;;;;;;2.38;2.17;;;;;;;;;;5037524;28;20198;-82
2021/06/01 01:02:16;;;;;;;2.22;2.03;;;;;;;;;;5038519;28;20588;-82
2021/06/01 01:04:43;;;;;;;3.60;1.95;;;;;;;;;;5037420;28;20272;-82
2021/06/01 01:07:17;;;;;;;2.90;2.20;;;;;;;;;;5036233;28;20237;-82
2021/06/01 01:09:45;;;;;;;2.50;2.30;;;;;;;;;;5036104;28;20215;-82
2021/06/01 01:12:16;;;;;;;2.40;2.20;;;;;;;;;;5035866;28;20216;-82
2021/06/01 01:14:48;;;;;;;2.30;2.08;;;;;;;;;;5036114;28;20234;-82
2021/06/01 01:17:18;;;;;;;2.65;2.45;;;;;;;;;;5036428;28;20260;-82
2021/06/01 01:20:19;;;;;;;2.47;2.22;;;;;;;;;;5036461;28;20199;-82
2021/06/01 01:22:48;;;;;;;2.72;1.85;;;;;;;;;;4988804;28;20285;-82
2021/06/01 01:25:22;;;;;;;2.42;2.30;;;;;;;;;;5035054;28;20223;-82
2021/06/01 01:28:05;;;;;;;2.40;2.20;;;;;;;;;;5035904;28;20284;-82
2021/06/01 01:30:40;;;;;;;2.30;2.10;;;;;;;;;;5035680;28;20660;-82
2021/06/01 01:33:15;;;;;;;3.45;1.95;;;;;;;;;;5035968;28;20236;-82
2021/06/01 01:35:43;;;;;;;2.10;1.90;;;;;;;;;;5035863;28;20253;-82
2021/06/01 01:38:10;;;;;;;2.42;2.22;;;;;;;;;;5035895;28;20233;-82
2021/06/01 01:40:38;;;;;;;3.67;2.30;;;;;;;;;;5035508;28;20198;-82
2021/06/01 01:43:09;;;;;;;3.85;2.40;;;;;;;;;;5036430;28;20206;-82
2021/06/01 01:45:40;;;;;;;2.60;2.40;;;;;;;;;;5036128;28;20227;-82
2021/06/01 01:51:11;;;;;;;2.50;2.30;;;;;;;;;;5035853;28;20509;-82
2021/06/01 01:53:41;;;;;;;2.22;2.03;;;;;;;;;;5035955;28;20198;-82
2021/06/01 01:56:09;;;;;;;2.55;2.35;;;;;;;;;;5035489;28;20719;-82
2021/06/01 01:58:36;;;;;;;2.63;2.42;;;;;;;;;;5034916;28;20202;-82
2021/06/01 02:01:04;;;;;;;1.92;1.83;;;;;;;;;;5035740;28;20202;-82
2021/06/01 02:03:32;;;;;;;1.98;1.77;;;;;;;;;;5035117;28;20206;-82
2021/06/01 02:05:59;;;;;;;2.42;2.22;;;;;;;;;;5035496;28;20202;-82
2021/06/01 02:08:26;;;;;;;2.47;2.13;;;;;;;;;;5035325;28;20704;-82
2021/06/01 02:10:54;;;;;;;2.25;2.05;;;;;;;;;;5035094;28;20215;-82
2021/06/01 02:13:21;;;;;;;2.72;2.20;;;;;;;;;;5035092;28;20202;-82
2021/06/01 02:15:48;;;;;;;2.60;2.33;;;;;;;;;;5035342;28;20241;-82
2021/06/01 02:18:16;;;;;;;2.40;2.20;;;;;;;;;;5035006;28;20206;-82
2021/06/01 02:20:46;;;;;;;2.38;2.05;;;;;;;;;;5035197;28;20224;-82
2021/06/01 02:26:03;;;;;;;4.07;2.55;;;;;;;;;;5035464;28;20205;-82
2021/06/01 02:28:39;;;;;;;2.30;2.05;;;;;;;;;;5035125;28;20225;-82
2021/06/01 02:31:07;;;;;;;4.68;2.20;;;;;;;;;;5035170;28;20206;-81
2021/06/01 02:33:37;;;;;;;2.72;2.15;;;;;;;;;;5034897;28;20602;-82
2021/06/01 02:36:06;;;;;;;2.17;1.98;;;;;;;;;;5034444;28;20211;-82
2021/06/01 02:38:35;;;;;;;2.83;2.63;;;;;;;;;;5035359;28;20199;-82
2021/06/01 02:41:04;;;;;;;2.90;2.70;;;;;;;;;;5034829;28;20582;-82
2021/06/01 02:43:31;;;;;;;2.10;1.90;;;;;;;;;;5034801;28;20195;-82
2021/06/01 02:45:58;;;;;;;3.03;2.38;;;;;;;;;;5034239;28;20680;-82
2021/06/01 02:48:26;;;;;;;2.92;2.50;;;;;;;;;;5033458;28;20366;-82
2021/06/01 02:50:57;;;;;;;1.92;1.80;;;;;;;;;;5033962;28;20201;-82
2021/06/01 02:53:26;;;;;;;2.95;2.42;;;;;;;;;;5034520;28;20198;-82
2021/06/01 02:55:53;;;;;;;2.10;2.00;;;;;;;;;;5034994;28;20213;-82
2021/06/01 02:58:20;;;;;;;2.80;2.50;;;;;;;;;;5035432;28;20213;-82
2021/06/01 03:00:47;;;;;;;2.63;2.42;;;;;;;;;;5034987;28;20199;-82
2021/06/01 03:03:15;;;;;;;2.83;2.25;;;;;;;;;;5035251;28;20198;-82
2021/06/01 03:05:43;;;;;;;2.53;2.30;;;;;;;;;;5035283;28;20222;-82
2021/06/01 03:08:25;;;;;;;2.55;2.25;;;;;;;;;;5035193;28;20596;-82
2021/06/01 03:10:54;;;;;;;1.98;1.75;;;;;;;;;;5035884;28;20213;-82
2021/06/01 03:13:21;;;;;;;2.33;2.13;;;;;;;;;;5035470;28;20606;-81
2021/06/01 03:15:48;;;;;;;2.90;2.70;;;;;;;;;;5035390;28;20271;-82
2021/06/01 03:18:15;;;;;;;2.72;2.53;;;;;;;;;;5035037;28;20202;-82
2021/06/01 03:20:42;;;;;;;2.35;2.13;;;;;;;;;;5034993;28;20202;-82
2021/06/01 03:23:09;;;;;;;2.00;1.90;;;;;;;;;;5035629;28;20672;-82
2021/06/01 03:25:36;;;;;;;2.30;2.10;;;;;;;;;;5035149;28;20214;-82
2021/06/01 03:28:05;;;;;;;2.50;2.30;;;;;;;;;;5033962;28;20595;-82
2021/06/01 03:30:33;;;;;;;2.35;2.03;;;;;;;;;;5034984;28;20210;-82
2021/06/01 03:33:00;;;;;;;2.78;2.45;;;;;;;;;;5035131;28;20618;-81
2021/06/01 03:35:28;;;;;;;1.95;1.85;;;;;;;;;;5035071;28;20214;-81
2021/06/01 03:37:56;;;;;;;2.20;2.10;;;;;;;;;;5034774;28;20598;-83
2021/06/01 03:40:23;;;;;;;3.30;2.67;;;;;;;;;;5034559;28;20199;-83
2021/06/01 03:42:51;;;;;;;2.42;2.22;;;;;;;;;;5034762;28;20301;-83
2021/06/01 03:45:20;;;;;;;2.90;2.30;;;;;;;;;;5035263;28;20230;-83
2021/06/01 03:47:47;;;;;;;2.95;2.65;;;;;;;;;;5036508;28;20233;-83
2021/06/01 03:50:14;;;;;;;2.67;2.40;;;;;;;;;;5039027;28;20252;-83
2021/06/01 03:52:41;;;;;;;2.75;2.10;;;;;;;;;;5039716;28;20210;-82
2021/06/01 03:55:09;;;;;;;2.70;2.50;;;;;;;;;;5039527;28;20267;-82
2021/06/01 03:57:36;;;;;;;2.42;2.22;;;;;;;;;;5039141;28;20576;-81
2021/06/01 04:00:06;;;;;;;4.05;2.70;;;;;;;;;;5038551;28;20213;-82
2021/06/01 04:02:34;;;;;;;2.53;1.98;;;;;;;;;;5039122;28;20206;-82
2021/06/01 04:05:01;;;;;;;3.28;2.70;;;;;;;;;;5038943;28;20230;-82
2021/06/01 04:07:28;;;;;;;3.45;2.20;;;;;;;;;;5038250;28;20238;-83
2021/06/01 04:09:58;;;;;;;2.70;2.50;;;;;;;;;;5038606;28;20214;-82
2021/06/01 04:12:25;;;;;;;2.63;2.42;;;;;;;;;;5038488;28;20206;-82
2021/06/01 04:14:52;;;;;;;4.13;2.10;;;;;;;;;;5037433;28;20222;-82
2021/06/01 04:17:19;;;;;;;2.63;2.42;;;;;;;;;;5038731;28;20293;-81
2021/06/01 04:19:47;;;;;;;3.20;2.03;;;;;;;;;;5038479;28;20190;-82
2021/06/01 04:22:15;;;;;;;2.35;2.15;;;;;;;;;;5037983;28;20198;-82
2021/06/01 04:24:41;;;;;;;2.15;2.00;;;;;;;;;;5038300;28;20318;-82
2021/06/01 04:27:09;;;;;;;2.95;2.55;;;;;;;;;;5038125;28;20206;-82
2021/06/01 04:29:36;;;;;;;2.72;2.00;;;;;;;;;;5038251;28;20293;-81
2021/06/01 04:32:04;;;;;;;2.08;1.88;;;;;;;;;;5037825;28;20210;-81
2021/06/01 04:34:31;;;;;;;2.47;2.28;;;;;;;;;;5037730;28;20214;-81
2021/06/01 04:36:59;;;;;;;4.63;2.28;;;;;;;;;;5037294;28;20295;-81
2021/06/01 04:39:27;;;;;;;2.13;2.03;;;;;;;;;;5038187;28;20206;-81
2021/06/01 04:41:54;;;;;;;2.33;2.10;;;;;;;;;;5036919;28;20210;-81
2021/06/01 04:44:21;;;;;;;2.28;2.08;;;;;;;;;;5037282;28;20226;-81
2021/06/01 04:46:50;;;;;;;2.63;2.42;;;;;;;;;;5036862;28;20195;-81
2021/06/01 04:49:16;;;;;;;2.58;2.38;;;;;;;;;;5036650;28;20258;-81
2021/06/01 04:51:43;;;;;;;2.50;2.30;;;;;;;;;;5036193;28;20202;-82
2021/06/01 04:54:12;;;;;;;2.70;2.10;;;;;;;;;;5036259;28;20233;-82
2021/06/01 04:56:39;;;;;;;3.17;2.10;;;;;;;;;;5036321;28;20225;-82
2021/06/01 04:59:06;;;;;;;2.60;2.10;;;;;;;;;;5035483;28;20207;-82
2021/06/01 05:01:33;;;;;;;2.10;2.00;;;;;;;;;;5036642;28;20209;-82
2021/06/01 05:03:59;;;;;;;2.22;2.05;;;;;;;;;;5036542;28;20222;-82
2021/06/01 05:06:26;;;;;;;3.47;2.67;;;;;;;;;;5037128;28;20194;-82
2021/06/01 05:08:53;;;;;;;2.20;2.00;;;;;;;;;;5036253;28;20564;-82
2021/06/01 05:11:22;;;;;;;2.90;2.63;;;;;;;;;;5036507;28;20206;-82
2021/06/01 05:13:49;;;;;;;2.65;2.45;;;;;;;;;;5036077;28;20214;-82
2021/06/01 05:16:16;;;;;;;2.38;2.17;;;;;;;;;;5036393;28;20276;-82
2021/06/01 05:18:42;;;;;;;5.03;2.50;;;;;;;;;;5035657;28;20202;-83
2021/06/01 05:21:09;;;;;;;4.82;2.60;;;;;;;;;;5035989;28;20261;-83
2021/06/01 05:23:36;;;;;;;5.38;2.55;;;;;;;;;;5036259;28;20573;-83
2021/06/01 05:26:04;;;;;;;3.05;2.85;;;;;;;;;;5035628;28;20213;-83
2021/06/01 05:28:34;;;;;;;4.72;3.65;;;;;;;;;;5035922;28;20234;-83
2021/06/01 05:31:09;;;;;;;3.75;2.80;;;;;;;;;;5035975;28;20202;-83
2021/06/01 05:33:37;;;;;;;2.97;2.50;;;;;;;;;;5036084;28;20289;-83
2021/06/01 05:36:05;;;;;;;2.05;1.95;;;;;;;;;;5036457;28;20198;-83
2021/06/01 05:38:33;;;;;;;3.30;2.10;;;;;;;;;;5036412;28;20194;-81
2021/06/01 05:41:01;;;;;;;3.78;2.22;;;;;;;;;;5036014;28;20202;-82
2021/06/01 05:43:29;;;;;;;3.38;2.67;;;;;;;;;;5035693;28;20202;-82
2021/06/01 05:45:58;;;;;;;2.88;2.67;;;;;;;;;;5035800;28;20203;-82
2021/06/01 05:48:25;;;;;;;3.47;2.25;;;;;;;;;;5035752;28;20225;-82
2021/06/01 05:50:52;;;;;;;2.97;2.78;;;;;;;;;;5035999;28;20202;-82
2021/06/01 05:53:20;;;;;;;3.42;2.22;;;;;;;;;;5036563;28;20203;-83
2021/06/01 05:55:47;;;;;;;4.32;2.38;;;;;;;;;;5035897;28;20582;-83
2021/06/01 05:58:14;;;;;;;3.35;2.10;;;;;;;;;;5035504;28;20206;-83
2021/06/01 06:00:41;;;;;;;4.32;2.50;;;;;;;;;;5034942;28;20210;-83
2021/06/01 06:03:10;;;;;;;3.53;2.38;;;;;;;;;;5035545;28;20259;-83
2021/06/01 06:05:36;;;;;;;2.13;1.98;;;;;;;;;;5035420;28;20226;-82
2021/06/01 06:08:12;;;;;;;2.10;1.90;;;;;;;;;;5034917;28;20374;-83
2021/06/01 06:10:39;;;;;;;2.53;2.33;;;;;;;;;;5033990;28;20289;-83
2021/06/01 06:13:06;;;;;;;2.10;1.85;;;;;;;;;;5035551;28;20672;-83
2021/06/01 06:15:33;;;;;;;2.55;2.35;;;;;;;;;;5034294;28;20222;-83
2021/06/01 06:18:06;;;;;;;2.60;2.40;;;;;;;;;;5033792;28;20202;-83
2021/06/01 06:20:35;;;;;;;2.92;2.70;;;;;;;;;;5034251;28;20300;-83
2021/06/01 06:23:02;;;;;;;2.78;2.22;;;;;;;;;;5034247;28;20229;-86
2021/06/01 06:25:29;;;;;;;6.20;4.15;;;;;;;;;;5035142;28;20219;-84
2021/06/01 06:27:56;;;;;;;2.75;2.13;;;;;;;;;;5035709;28;20252;-84
2021/06/01 06:30:24;;;;;;;2.30;2.10;;;;;;;;;;5034974;28;20206;-84
2021/06/01 06:32:51;;;;;;;3.13;2.38;;;;;;;;;;5034900;28;20234;-83
2021/06/01 06:35:18;;;;;;;5.68;2.20;;;;;;;;;;5033856;28;20233;-84
2021/06/01 06:37:47;;;;;;;3.97;2.15;;;;;;;;;;5033363;28;20230;-83
2021/06/01 06:40:15;;;;;;;2.70;2.50;;;;;;;;;;5034044;28;20203;-83
2021/06/01 06:42:42;;;;;;;3.92;2.08;;;;;;;;;;5033858;28;20233;-83
2021/06/01 06:45:13;;;;;;;2.67;2.30;;;;;;;;;;5033917;28;20219;-84
2021/06/01 06:47:56;;;;;;;2.60;2.35;;;;;;;;;;5033890;28;20632;-84
2021/06/01 06:50:24;;;;;;;2.42;1.98;;;;;;;;;;5033330;28;20225;-83
2021/06/01 06:52:52;;;;;;;2.15;2.03;;;;;;;;;;5033975;28;20202;-84
2021/06/01 06:55:19;;;;;;;2.55;2.35;;;;;;;;;;5033808;28;20232;-84
2021/06/01 06:57:46;;;;;;;2.25;2.15;;;;;;;;;;5033848;28;20205;-84
2021/06/01 07:00:16;;;;;;;2.75;2.13;;;;;;;;;;5033979;28;20206;-83
2021/06/01 07:02:43;;;;;;;2.40;2.20;;;;;;;;;;5033930;28;20259;-83
2021/06/01 07:05:13;;;;;;;2.75;2.50;;;;;;;;;;5033059;28;20222;-83
2021/06/01 07:07:41;;;;;;;3.60;2.20;;;;;;;;;;5033663;28;20198;-84
2021/06/01 07:10:12;;;;;;;3.25;2.85;;;;;;;;;;5034085;28;20222;-84
2021/06/01 07:12:42;;;;;;;4.05;3.75;;;;;;;;;;5034139;28;20202;-84
2021/06/01 07:15:30;;;;;;;3.03;2.42;;;;;;;;;;5033437;28;20226;-84
2021/06/01 07:18:00;;;;;;;2.75;2.55;;;;;;;;;;5033397;28;20205;-83
2021/06/01 07:20:31;;;;;;;3.97;2.95;;;;;;;;;;5032997;28;20202;-83
2021/06/01 07:22:58;;;;;;;3.17;2.92;;;;;;;;;;5035054;28;20252;-83
2021/06/01 07:25:26;;;;;;;2.45;2.30;;;;;;;;;;5037541;28;20226;-83
2021/06/01 07:27:53;;;;;;;3.72;2.60;;;;;;;;;;5037099;28;20206;-84
2021/06/01 07:30:22;;;;;;;2.50;2.13;;;;;;;;;;5038256;28;20226;-83
2021/06/01 07:32:49;;;;;;;3.00;2.33;;;;;;;;;;5038174;28;20260;-84
2021/06/01 07:35:16;;;;;;;2.60;2.40;;;;;;;;;;5037889;28;20254;-84
2021/06/01 07:37:44;;;;;;;3.00;2.50;;;;;;;;;;5037605;28;20553;-84
2021/06/01 07:40:11;;;;;;;2.10;1.80;;;;;;;;;;5037695;28;20202;-84
2021/06/01 07:42:40;;;;;;;2.97;2.40;;;;;;;;;;5037359;28;20195;-84
2021/06/01 07:45:08;;;;;;;2.50;2.30;;;;;;;;;;5036407;28;20218;-83
2021/06/01 07:47:35;;;;;;;3.53;2.60;;;;;;;;;;5036371;28;20213;-83
2021/06/01 07:50:03;;;;;;;3.35;2.88;;;;;;;;;;5036327;28;20218;-82
2021/06/01 07:52:30;;;;;;;4.10;2.30;;;;;;;;;;5037620;28;20198;-83
2021/06/01 07:54:57;;;;;;;2.40;2.20;;;;;;;;;;5037104;28;20269;-84
2021/06/01 07:57:24;;;;;;;6.18;3.20;;;;;;;;;;5038105;28;20209;-84
2021/06/01 07:59:52;;;;;;;2.35;2.15;;;;;;;;;;5038902;28;20574;-83
2021/06/01 08:04:12;;;;;;;3.60;2.42;;;;;;;;;;5139022;27;20865;-84
2021/06/01 08:06:39;;;;;;;3.55;2.58;;;;;;;;;;5133026;27;20652;-84
2021/06/01 08:09:08;;;;;;;55.95;5.68;;;;;;;;;;5131936;28;20224;-84
2021/06/01 08:11:35;;;;;;;2.88;2.22;;;;;;;;;;5131102;28;20198;-84
2021/06/01 08:14:02;;;;;;;6.75;2.30;;;;;;;;;;5133381;28;20628;-83
2021/06/01 08:16:31;;;;;;;754.22;63.03;;;;;;;;;;5133412;28;20191;-81
2021/06/01 08:19:04;;;;;;;33.78;5.28;;;;;;;;;;5131391;27;20293;-82
2021/06/01 08:21:43;;;;;;;2.33;1.83;;;;;;;;;;5135007;28;20200;-84
2021/06/01 08:24:10;;;;;;;2.70;2.40;;;;;;;;;;5136786;28;20222;-84
2021/06/01 08:26:37;;;;;;;3.60;1.98;;;;;;;;;;5134909;27;20203;-85
2021/06/01 08:29:04;;;;;;;5.32;1.95;;;;;;;;;;5135003;28;20199;-84
2021/06/01 08:31:31;;;;;;;4.47;2.10;;;;;;;;;;5135376;28;20581;-84
2021/06/01 08:33:58;;;;;;;2.70;2.28;;;;;;;;;;5134554;28;20211;-85
2021/06/01 08:36:26;;;;;;;3.08;2.58;;;;;;;;;;5134741;28;20510;-85
2021/06/01 08:38:54;;;;;;;2.50;2.30;;;;;;;;;;5134760;27;20199;-85
2021/06/01 08:41:21;;;;;;;3.30;2.30;;;;;;;;;;5134736;27;20203;-85
2021/06/01 08:43:50;;;;;;;2.25;2.05;;;;;;;;;;5134217;28;20227;-85
2021/06/01 08:46:20;;;;;;;2.72;1.92;;;;;;;;;;5134276;28;20223;-85
2021/06/01 08:48:47;;;;;;;2.03;1.83;;;;;;;;;;5134006;28;20207;-83
2021/06/01 08:51:20;;;;;;;21.63;2.95;;;;;;;;;;5130836;28;20191;-84
2021/06/01 08:53:48;;;;;;;2.45;2.22;;;;;;;;;;5131879;28;20216;-85
2021/06/01 08:56:17;;;;;;;1.52;1.45;;;;;;;;;;5131410;27;20239;-85
2021/06/01 08:58:47;;;;;;;2.67;1.98;;;;;;;;;;5130758;28;20195;-85
2021/06/01 09:01:14;;;;;;;4.20;2.25;;;;;;;;;;5131292;28;20720;-85
2021/06/01 09:03:45;;;;;;;14.23;2.72;;;;;;;;;;5129833;28;20227;-85
2021/06/01 09:06:18;;;;;;;2.17;1.98;;;;;;;;;;5130285;27;20548;-86
2021/06/01 09:08:59;;;;;;;2.15;1.98;;;;;;;;;;5129848;28;20680;-85
2021/06/01 09:11:44;;;;;;;2.72;2.17;;;;;;;;;;5129988;28;20198;-85
2021/06/01 09:20:58;;;;;;;2.67;2.00;;;;;;;;;;5115939;28;20703;-84
2021/06/01 09:22:52;;;;;;;3.65;2.00;;;;;;;;;;5116377;28;20603;-85
2021/06/01 09:25:24;;;;;;;2.22;2.05;;;;;;;;;;5115810;28;20223;-85
2021/06/01 09:27:54;;;;;;;2.45;2.25;;;;;;;;;;5116658;28;20210;-84
2021/06/01 09:30:41;;;;;;;1.73;1.63;;;;;;;;;;5117230;28;20240;-85
2021/06/01 09:33:09;;;;;;;2.00;1.90;;;;;;;;;;5117034;28;20240;-85
2021/06/01 09:35:49;;;;;;;5.97;2.08;;;;;;;;;;5116896;28;20318;-87
2021/06/01 09:38:19;;;;;;;2.72;2.35;;;;;;;;;;5118927;28;20282;-85
2021/06/01 09:40:47;;;;;;;2.85;1.58;;;;;;;;;;5117469;28;20693;-85
2021/06/01 09:43:16;;;;;;;7.68;2.95;;;;;;;;;;5117101;28;20218;-85
2021/06/01 09:45:45;;;;;;;2.20;1.92;;;;;;;;;;5116832;28;20215;-85
2021/06/01 09:48:13;;;;;;;1.83;1.73;;;;;;;;;;5116670;28;20684;-85
2021/06/01 09:50:47;;;;;;;2.15;1.98;;;;;;;;;;5117720;28;20665;-85
2021/06/01 09:53:19;;;;;;;2.72;2.15;;;;;;;;;;5116584;28;20211;-85
2021/06/01 09:55:48;;;;;;;1.90;1.80;;;;;;;;;;5117051;28;20230;-84
2021/06/01 09:58:25;;;;;;;2.40;2.20;;;;;;;;;;5117646;28;20279;-85
2021/06/01 10:00:53;;;;;;;2.90;2.08;;;;;;;;;;5116272;28;20286;-85
2021/06/01 10:03:23;;;;;;;2.13;1.92;;;;;;;;;;5116025;28;20232;-84
2021/06/01 10:05:53;;;;;;;2.33;1.95;;;;;;;;;;5116217;28;20211;-85
2021/06/01 10:08:23;;;;;;;4.05;1.85;;;;;;;;;;5115555;28;20191;-85
2021/06/01 10:10:52;;;;;;;3.97;1.73;;;;;;;;;;5115765;28;20200;-84
2021/06/01 10:13:22;;;;;;;2.65;1.70;;;;;;;;;;5116083;28;20194;-86
2021/06/01 10:15:51;;;;;;;2.38;2.17;;;;;;;;;;5115381;28;20744;-85
2021/06/01 10:18:19;;;;;;;2.22;1.77;;;;;;;;;;5115440;27;20199;-85
2021/06/01 10:20:48;;;;;;;2.40;2.30;;;;;;;;;;5115411;28;20572;-85
2021/06/01 10:23:20;;;;;;;2.40;2.20;;;;;;;;;;5115512;28;20220;-84
2021/06/01 10:25:47;;;;;;;1.83;1.73;;;;;;;;;;5114480;28;20223;-84
2021/06/01 10:28:23;;;;;;;2.15;2.05;;;;;;;;;;5115006;28;20196;-85
2021/06/01 10:30:53;;;;;;;2.58;1.85;;;;;;;;;;5115606;28;20195;-85
2021/06/01 10:33:22;;;;;;;2.50;1.80;;;;;;;;;;5115289;28;20287;-85
2021/06/01 10:36:01;;;;;;;3.35;1.85;;;;;;;;;;5115474;28;20238;-84
2021/06/01 10:44:55;;;;;;;3.22;3.03;;;;;;;;;;5114861;28;20233;-86
2021/06/01 10:50:33;;;;;;;2.30;2.10;;;;;;;;;;5114897;28;20272;-84
2021/06/01 10:53:06;;;;;;;1.95;1.85;;;;;;;;;;5114707;28;20207;-86
2021/06/01 10:56:03;;;;;;;1.85;1.75;;;;;;;;;;5115150;28;20215;-85
2021/06/01 10:59:09;;;;;;;3.25;1.80;;;;;;;;;;5114453;28;20199;-85
2021/06/01 11:01:51;;;;;;;2.80;2.22;;;;;;;;;;5031305;28;20607;-84
2021/06/01 11:04:23;;;;;;;2.25;2.05;;;;;;;;;;5107702;28;20223;-84
2021/06/01 11:07:38;;;;;;;1.70;1.60;;;;;;;;;;5113959;28;20204;-83
2021/06/01 11:10:06;;;;;;;1.73;1.63;;;;;;;;;;5114277;28;20199;-85
2021/06/01 11:12:46;;;;;;;2.28;1.67;;;;;;;;;;5114970;28;20200;-84
2021/06/01 11:15:31;;;;;;;3.85;1.60;;;;;;;;;;5114218;28;20219;-85
2021/06/01 11:18:20;;;;;;;1.77;1.67;;;;;;;;;;5115100;28;20219;-85
2021/06/01 11:21:15;;;;;;;3.50;1.75;;;;;;;;;;5114657;28;20248;-84
2021/06/01 11:36:03;;;;;;;1.70;1.60;;;;;;;;;;5113748;28;20245;-84
2021/06/01 11:38:36;;;;;;;1.83;1.27;;;;;;;;;;5114246;28;20231;-86
2021/06/01 11:43:54;;;;;;;1.98;1.88;;;;;;;;;;5113808;28;20729;-84
2021/06/01 11:46:30;;;;;;;1.77;1.67;;;;;;;;;;5113659;28;20210;-86
2021/06/01 11:51:46;;;;;;;2.55;2.00;;;;;;;;;;5114964;28;20198;-86
2021/06/01 11:54:15;;;;;;;3.47;2.58;;;;;;;;;;5114561;28;20697;-84
2021/06/01 11:57:09;;;;;;;1.90;1.80;;;;;;;;;;5114129;28;20191;-84
2021/06/01 12:05:17;;;;;;;1.55;1.45;;;;;;;;;;5114235;28;20635;-85
2021/06/01 12:18:54;;;;;;;3.58;1.85;;;;;;;;;;5114329;28;20207;-85
2021/06/01 12:21:25;;;;;;;18.45;3.00;;;;;;;;;;5113951;28;20714;-85
2021/06/01 12:23:59;;;;;;;2.20;2.03;;;;;;;;;;5112881;28;20224;-85
2021/06/01 12:26:32;;;;;;;2.42;2.22;;;;;;;;;;5113039;28;20681;-86
2021/06/01 12:32:04;;;;;;;1.90;1.80;;;;;;;;;;5037519;28;20205;-85
2021/06/01 12:34:49;;;;;;;2.53;1.90;;;;;;;;;;5113313;28;20569;-85
2021/06/01 12:43:06;;;;;;;2.20;2.00;;;;;;;;;;5113160;28;20199;-85
2021/06/01 13:12:47;;;;;;;3.15;1.75;;;;;;;;;;5118357;28;20290;-86
2021/06/01 13:20:58;;;;;;;8.73;2.22;;;;;;;;;;5118784;28;20195;-85
2021/06/01 13:23:49;;;;;;;15.77;3.17;;;;;;;;;;5117928;28;20195;-85
2021/06/01 13:40:30;;;;;;;1.40;1.30;;;;;;;;;;5119576;28;20227;-84
2021/06/01 13:46:06;;;;;;;4.53;1.90;;;;;;;;;;5117733;28;20713;-84
2021/06/01 13:48:49;;;;;;;7.90;2.13;;;;;;;;;;5117465;28;20195;-84
2021/06/01 13:56:59;;;;;;;1.73;1.50;;;;;;;;;;5120893;28;20583;-85
2021/06/01 13:59:38;;;;;;;3.45;1.70;;;;;;;;;;5118218;28;20565;-83
2021/06/01 14:02:37;;;;;;;1.60;1.50;;;;;;;;;;5119198;28;20313;-85
2021/06/01 14:10:57;;;;;;;1.92;1.70;;;;;;;;;;5119778;28;20218;-85
2021/06/01 14:21:53;;;;;;;1.63;1.52;;;;;;;;;;5115126;28;20257;-87
2021/06/01 14:30:13;;;;;;;3.22;1.50;;;;;;;;;;5115216;28;20196;-86
2021/06/01 14:35:52;;;;;;;1.77;1.63;;;;;;;;;;5115901;28;20268;-85
2021/06/01 15:22:32;;;;;;;2.10;1.38;;;;;;;;;;5114258;28;20282;-85
2021/06/01 15:28:43;;;;;;;2.08;1.73;;;;;;;;;;5114529;28;20711;-85
2021/06/01 15:48:14;;;;;;;2.47;1.60;;;;;;;;;;5115414;28;20206;-85
2021/06/01 15:52:02;;;;;;;2.75;1.95;;;;;;;;;;5118391;28;20205;-85
2021/06/01 15:55:04;;;;;;;1.70;1.60;;;;;;;;;;5114245;28;20254;-85
2021/06/01 16:11:53;;;;;;;1.80;1.70;;;;;;;;;;5113184;28;20199;-84
2021/06/01 16:14:25;;;;;;;4.10;2.83;;;;;;;;;;5113623;28;20222;-84
2021/06/01 16:22:52;;;;;;;4.10;2.38;;;;;;;;;;5050300;28;20198;-84
2021/06/01 16:31:15;;;;;;;2.35;2.15;;;;;;;;;;5118314;28;20206;-86
2021/06/01 16:42:24;;;;;;;1.92;1.80;;;;;;;;;;5119177;28;20178;-85
2021/06/01 17:04:34;;;;;;;2.17;2.00;;;;;;;;;;5079990;28;20228;-84
2021/06/01 17:07:16;;;;;;;3.45;2.17;;;;;;;;;;5076189;28;20221;-85
2021/06/01 17:12:40;;;;;;;2.10;1.90;;;;;;;;;;5075323;28;20203;-85
2021/06/01 17:15:08;;;;;;;4.18;2.50;;;;;;;;;;5076540;28;20217;-84
2021/06/01 17:17:35;;;;;;;2.67;2.20;;;;;;;;;;5077401;28;20204;-85
2021/06/01 17:20:28;;;;;;;2.55;2.00;;;;;;;;;;5076108;28;20207;-84
2021/06/01 17:23:14;;;;;;;2.30;2.10;;;;;;;;;;5075869;28;20201;-85
2021/06/01 17:31:42;;;;;;;2.60;2.42;;;;;;;;;;5075676;28;20208;-84
2021/06/01 17:36:55;;;;;;;4.00;1.98;;;;;;;;;;5076870;28;20542;-85
2021/06/01 17:39:24;;;;;;;4.13;2.33;;;;;;;;;;5075907;28;20265;-85
2021/06/01 17:41:55;;;;;;;2.20;2.10;;;;;;;;;;5075766;28;20671;-85
2021/06/01 17:44:24;;;;;;;2.53;2.25;;;;;;;;;;5075302;28;20270;-85
2021/06/01 17:46:52;;;;;;;2.33;2.22;;;;;;;;;;5076824;28;20235;-85
2021/06/01 17:49:23;;;;;;;4.45;2.45;;;;;;;;;;5075396;28;20577;-85
2021/06/01 17:51:52;;;;;;;2.90;2.60;;;;;;;;;;5076370;28;20618;-85
2021/06/01 17:54:27;;;;;;;2.60;2.40;;;;;;;;;;5076563;28;20302;-85
2021/06/01 17:56:54;;;;;;;3.25;2.40;;;;;;;;;;5076302;28;20200;-85
2021/06/01 17:59:23;;;;;;;1.98;1.88;;;;;;;;;;5075765;28;20268;-85
2021/06/01 18:01:52;;;;;;;2.35;2.15;;;;;;;;;;5076977;28;20270;-85
2021/06/01 18:04:22;;;;;;;2.70;2.00;;;;;;;;;;5115897;28;20280;-85
2021/06/01 18:06:52;;;;;;;2.40;2.20;;;;;;;;;;5116919;28;20215;-85
2021/06/01 18:09:35;;;;;;;2.50;2.30;;;;;;;;;;5116623;28;20199;-85
2021/06/01 18:12:27;;;;;;;3.38;2.35;;;;;;;;;;5115636;28;20199;-85
2021/06/01 18:37:24;;;;;;;2.92;2.22;;;;;;;;;;5097860;28;20195;-85
2021/06/01 18:43:01;;;;;;;2.70;2.35;;;;;;;;;;5097334;28;20669;-84
2021/06/01 18:51:43;;;;;;;2.38;2.20;;;;;;;;;;5097906;28;20200;-84
2021/06/01 19:00:12;;;;;;;2.28;2.17;;;;;;;;;;5118323;28;20693;-84
2021/06/01 19:24:48;;;;;;;2.42;2.22;;;;;;;;;;5098637;28;20238;-84
2021/06/01 19:27:53;;;;;;;2.85;2.50;;;;;;;;;;5099418;28;20217;-85
2021/06/01 19:50:00;;;;;;;2.35;2.25;;;;;;;;;;5099071;28;20203;-85
2021/06/01 19:52:30;;;;;;;2.97;2.78;;;;;;;;;;5099452;28;20207;-85
2021/06/01 19:54:59;;;;;;;2.75;2.55;;;;;;;;;;5098221;28;20220;-85
2021/06/01 19:57:26;;;;;;;2.65;2.45;;;;;;;;;;5098780;28;20203;-85
2021/06/01 19:59:56;;;;;;;3.03;2.50;;;;;;;;;;5098106;28;20206;-85
2021/06/01 20:02:25;;;;;;;2.65;2.45;;;;;;;;;;5096405;28;20221;-84
2021/06/01 20:04:55;;;;;;;2.22;2.08;;;;;;;;;;5096851;28;20231;-83
2021/06/01 20:07:24;;;;;;;2.75;2.47;;;;;;;;;;5094755;28;20698;-83
2021/06/01 20:09:53;;;;;;;3.20;2.90;;;;;;;;;;5094379;28;20192;-83
2021/06/01 20:12:21;;;;;;;3.08;2.80;;;;;;;;;;5094605;28;20209;-84
2021/06/01 20:14:48;;;;;;;3.13;2.92;;;;;;;;;;5095665;28;20270;-84
2021/06/01 20:17:22;;;;;;;2.67;2.47;;;;;;;;;;5095775;28;20218;-83
2021/06/01 20:19:54;;;;;;;2.80;2.60;;;;;;;;;;5096422;28;20678;-83
2021/06/01 20:22:22;;;;;;;5.07;2.50;;;;;;;;;;5095670;28;20203;-83
2021/06/01 20:24:51;;;;;;;2.60;2.40;;;;;;;;;;5096215;28;20388;-83
2021/06/01 20:27:20;;;;;;;2.35;2.20;;;;;;;;;;5095668;28;20337;-83
2021/06/01 20:29:49;;;;;;;2.97;2.70;;;;;;;;;;5095141;28;20208;-83
2021/06/01 20:35:11;;;;;;;2.92;2.72;;;;;;;;;;5095246;28;20644;-83
2021/06/01 20:37:38;;;;;;;2.90;2.30;;;;;;;;;;5095225;28;20233;-83
2021/06/01 20:40:08;;;;;;;2.63;2.38;;;;;;;;;;5094873;28;20200;-83
2021/06/01 20:42:35;;;;;;;3.20;2.50;;;;;;;;;;5094815;28;20206;-83
2021/06/01 20:45:02;;;;;;;2.70;2.08;;;;;;;;;;5095286;28;20265;-83
2021/06/01 20:47:29;;;;;;;3.10;2.17;;;;;;;;;;5095269;28;20713;-84
2021/06/01 20:49:57;;;;;;;4.97;2.95;;;;;;;;;;5094709;28;20204;-83
2021/06/01 20:52:24;;;;;;;3.85;2.45;;;;;;;;;;5094774;28;20204;-83
2021/06/01 20:54:51;;;;;;;2.70;2.50;;;;;;;;;;5094749;28;20220;-83
2021/06/01 20:57:19;;;;;;;2.88;2.47;;;;;;;;;;5095251;28;20201;-83
2021/06/01 20:59:47;;;;;;;2.38;2.03;;;;;;;;;;5094604;28;20199;-83
2021/06/01 21:02:14;;;;;;;2.28;2.17;;;;;;;;;;5094603;28;20228;-83